METAR AND TAF INFORMATION
METAR FOR KORF
KORF 260251Z 17005KT 10SM CLR 03/M04 A3018 RMK AO2 SLP218 T00281039 50005
KORF 260151Z 18005KT 10SM CLR 03/M05 A3019 RMK AO2 SLP221 T00281050
KORF 260051Z 18004KT 10SM CLR 03/M05 A3018 RMK AO2 SLP218 T00331050
KORF 252320Z 2600/2624 VRB05KT P6SM SKC
FM261100 20012KT P6SM SCT100
FM262100 22010KT P6SM BKN080

 AIRPORT MAP

 RUNWAY INFORMATION
Runway 05 Runway length 9001 ft Runway width 150 ft
Runway elevation 21 ft Runway displaced threshold 1000 ft Runway heading 38
Runway 23 Runway length 9001 ft Runway width 150 ft
Runway elevation 15 ft Runway displaced threshold 0 ft Runway heading 218
Runway 14 Runway length 4875 ft Runway width 150 ft
Runway elevation 19 ft Runway displaced threshold 213 ft Runway heading 128
Runway 32 Runway length 4875 ft Runway width 150 ft
Runway elevation 22 ft Runway displaced threshold 0 ft Runway heading 308

 AIRPORT FREQUENCIES
Type APP Name APP Frequency 118.9 MHZ
Type APP Name APP Frequency 28.83 MHZ
Type ATIS Name ATIS Frequency 127.15 MHZ
Type CLD Name CLNC DEL Frequency 118.5 MHZ
Type DEP Name DEP Frequency 125.2 MHZ
Type GND Name GND Frequency 121.9 MHZ
Type RDO Name LEESBURG R Frequency 116.9 MHZ
Type TWR Name TWR Frequency 120.8 MHZ

 AIRPORT NEAR NAVIGATION AIDS
Type NDB Name Ingle Frequency 329 KHZ
Type VORTAC Name Norfolk Frequency 116900 KHZ

-